Aviation Digital Data Service (ADDS)

Output produced by METARs form (2152 UTC 01 February 2023)
found at http://www.aviationweather.gov/metar/data/
 
KBNA 012053Z 01006KT 6SM BR OVC009 00/M02 A3031 RMK AO2 SLP269 I3000 T00001022 58019
KBNA 011741Z 0118/0218 01008KT 5SM BR OVC008 
     FM020300 36003KT P6SM OVC006 
     FM021000 01003KT 6SM BR VCSH OVC005 
     FM021500 36003KT P6SM OVC100